sensor_id;sensor_type;location;lat;lon;timestamp;P1;durP1;ratioP1;P2;durP2;ratioP2
6735;SDS011;3405;50.576;12.364;2023-02-01T00:01:46;0.57;;;0.40;;
6735;SDS011;3405;50.576;12.364;2023-02-01T00:04:12;0.40;;;0.40;;
6735;SDS011;3405;50.576;12.364;2023-02-01T00:06:38;2.28;;;0.57;;
6735;SDS011;3405;50.576;12.364;2023-02-01T00:09:04;1.90;;;0.68;;
6735;SDS011;3405;50.576;12.364;2023-02-01T00:11:30;0.75;;;0.50;;
6735;SDS011;3405;50.576;12.364;2023-02-01T00:13:56;2.33;;;0.50;;
6735;SDS011;3405;50.576;12.364;2023-02-01T00:16:23;2.38;;;0.70;;
6735;SDS011;3405;50.576;12.364;2023-02-01T00:18:50;1.95;;;0.60;;
6735;SDS011;3405;50.576;12.364;2023-02-01T00:21:17;0.60;;;0.45;;
6735;SDS011;3405;50.576;12.364;2023-02-01T00:23:43;0.75;;;0.60;;
6735;SDS011;3405;50.576;12.364;2023-02-01T00:26:26;2.25;;;0.60;;
6735;SDS011;3405;50.576;12.364;2023-02-01T00:28:53;1.02;;;0.60;;
6735;SDS011;3405;50.576;12.364;2023-02-01T00:31:19;0.57;;;0.50;;
6735;SDS011;3405;50.576;12.364;2023-02-01T00:33:46;1.10;;;0.65;;
6735;SDS011;3405;50.576;12.364;2023-02-01T00:36:12;1.27;;;0.43;;
6735;SDS011;3405;50.576;12.364;2023-02-01T00:38:38;0.90;;;0.55;;
6735;SDS011;3405;50.576;12.364;2023-02-01T00:41:05;0.93;;;0.50;;
6735;SDS011;3405;50.576;12.364;2023-02-01T00:43:32;1.10;;;0.60;;
6735;SDS011;3405;50.576;12.364;2023-02-01T00:45:58;2.63;;;0.95;;
6735;SDS011;3405;50.576;12.364;2023-02-01T00:48:24;0.60;;;0.60;;
6735;SDS011;3405;50.576;12.364;2023-02-01T00:50:50;1.25;;;0.55;;
6735;SDS011;3405;50.576;12.364;2023-02-01T00:53:16;0.50;;;0.50;;
6735;SDS011;3405;50.576;12.364;2023-02-01T00:55:48;0.95;;;0.50;;
6735;SDS011;3405;50.576;12.364;2023-02-01T00:58:14;3.60;;;0.57;;
6735;SDS011;3405;50.576;12.364;2023-02-01T01:00:40;1.45;;;0.60;;
6735;SDS011;3405;50.576;12.364;2023-02-01T01:03:06;1.45;;;0.90;;
6735;SDS011;3405;50.576;12.364;2023-02-01T01:05:48;2.20;;;0.40;;
6735;SDS011;3405;50.576;12.364;2023-02-01T01:08:15;0.70;;;0.40;;
6735;SDS011;3405;50.576;12.364;2023-02-01T01:10:41;0.40;;;0.30;;
6735;SDS011;3405;50.576;12.364;2023-02-01T01:13:07;0.82;;;0.50;;
6735;SDS011;3405;50.576;12.364;2023-02-01T01:15:37;1.13;;;0.50;;
6735;SDS011;3405;50.576;12.364;2023-02-01T01:18:03;0.52;;;0.52;;
6735;SDS011;3405;50.576;12.364;2023-02-01T01:20:29;0.65;;;0.60;;
6735;SDS011;3405;50.576;12.364;2023-02-01T01:22:55;1.00;;;0.65;;
6735;SDS011;3405;50.576;12.364;2023-02-01T01:25:21;1.63;;;0.65;;
6735;SDS011;3405;50.576;12.364;2023-02-01T01:27:47;0.50;;;0.50;;
6735;SDS011;3405;50.576;12.364;2023-02-01T01:30:13;0.60;;;0.60;;
6735;SDS011;3405;50.576;12.364;2023-02-01T01:32:39;0.68;;;0.55;;
6735;SDS011;3405;50.576;12.364;2023-02-01T01:35:05;0.75;;;0.47;;
6735;SDS011;3405;50.576;12.364;2023-02-01T01:37:31;0.57;;;0.52;;
6735;SDS011;3405;50.576;12.364;2023-02-01T01:39:57;0.40;;;0.40;;
6735;SDS011;3405;50.576;12.364;2023-02-01T01:42:23;1.42;;;0.60;;
6735;SDS011;3405;50.576;12.364;2023-02-01T01:47:25;1.38;;;0.60;;
6735;SDS011;3405;50.576;12.364;2023-02-01T01:49:52;1.23;;;0.50;;
6735;SDS011;3405;50.576;12.364;2023-02-01T01:52:18;0.47;;;0.47;;
6735;SDS011;3405;50.576;12.364;2023-02-01T01:54:45;0.32;;;0.32;;
6735;SDS011;3405;50.576;12.364;2023-02-01T01:57:20;1.35;;;0.52;;
6735;SDS011;3405;50.576;12.364;2023-02-01T01:59:48;1.17;;;0.70;;
6735;SDS011;3405;50.576;12.364;2023-02-01T02:02:15;0.65;;;0.40;;
6735;SDS011;3405;50.576;12.364;2023-02-01T02:04:41;1.05;;;0.52;;
6735;SDS011;3405;50.576;12.364;2023-02-01T02:07:11;0.73;;;0.57;;
6735;SDS011;3405;50.576;12.364;2023-02-01T02:09:39;0.30;;;0.30;;
6735;SDS011;3405;50.576;12.364;2023-02-01T02:12:07;0.65;;;0.50;;
6735;SDS011;3405;50.576;12.364;2023-02-01T02:14:33;1.17;;;0.50;;
6735;SDS011;3405;50.576;12.364;2023-02-01T02:17:03;0.70;;;0.50;;
6735;SDS011;3405;50.576;12.364;2023-02-01T02:19:41;0.50;;;0.45;;
6735;SDS011;3405;50.576;12.364;2023-02-01T02:27:14;0.88;;;0.60;;
6735;SDS011;3405;50.576;12.364;2023-02-01T02:38:18;0.40;;;0.40;;
6735;SDS011;3405;50.576;12.364;2023-02-01T02:40:49;0.50;;;0.50;;
6735;SDS011;3405;50.576;12.364;2023-02-01T02:46:06;1.05;;;0.50;;
6735;SDS011;3405;50.576;12.364;2023-02-01T02:51:55;0.50;;;0.50;;
6735;SDS011;3405;50.576;12.364;2023-02-01T02:54:45;0.52;;;0.50;;
6735;SDS011;3405;50.576;12.364;2023-02-01T02:57:27;0.75;;;0.57;;
6735;SDS011;3405;50.576;12.364;2023-02-01T03:00:14;0.73;;;0.50;;
6735;SDS011;3405;50.576;12.364;2023-02-01T03:03:00;0.40;;;0.40;;
6735;SDS011;3405;50.576;12.364;2023-02-01T03:05:45;1.63;;;0.50;;
6735;SDS011;3405;50.576;12.364;2023-02-01T03:08:13;0.98;;;0.47;;
6735;SDS011;3405;50.576;12.364;2023-02-01T03:10:57;0.28;;;0.28;;
6735;SDS011;3405;50.576;12.364;2023-02-01T03:16:15;2.50;;;0.63;;
6735;SDS011;3405;50.576;12.364;2023-02-01T03:21:26;1.13;;;0.50;;
6735;SDS011;3405;50.576;12.364;2023-02-01T03:23:54;0.55;;;0.50;;
6735;SDS011;3405;50.576;12.364;2023-02-01T03:26:22;0.40;;;0.40;;
6735;SDS011;3405;50.576;12.364;2023-02-01T03:28:51;0.50;;;0.43;;
6735;SDS011;3405;50.576;12.364;2023-02-01T03:31:19;0.47;;;0.47;;
6735;SDS011;3405;50.576;12.364;2023-02-01T03:33:45;0.68;;;0.50;;
6735;SDS011;3405;50.576;12.364;2023-02-01T03:36:15;0.35;;;0.30;;
6735;SDS011;3405;50.576;12.364;2023-02-01T03:41:33;1.88;;;0.65;;
6735;SDS011;3405;50.576;12.364;2023-02-01T03:44:06;0.98;;;0.43;;
6735;SDS011;3405;50.576;12.364;2023-02-01T03:49:13;1.00;;;0.45;;
6735;SDS011;3405;50.576;12.364;2023-02-01T03:51:41;0.77;;;0.50;;
6735;SDS011;3405;50.576;12.364;2023-02-01T03:54:08;0.40;;;0.40;;
6735;SDS011;3405;50.576;12.364;2023-02-01T03:56:36;0.60;;;0.57;;
6735;SDS011;3405;50.576;12.364;2023-02-01T03:59:02;0.88;;;0.65;;
6735;SDS011;3405;50.576;12.364;2023-02-01T04:01:29;0.35;;;0.30;;
6735;SDS011;3405;50.576;12.364;2023-02-01T04:03:55;0.43;;;0.43;;
6735;SDS011;3405;50.576;12.364;2023-02-01T04:06:21;2.25;;;0.75;;
6735;SDS011;3405;50.576;12.364;2023-02-01T04:08:47;0.50;;;0.50;;
6735;SDS011;3405;50.576;12.364;2023-02-01T04:11:13;0.85;;;0.50;;
6735;SDS011;3405;50.576;12.364;2023-02-01T04:13:39;1.35;;;0.52;;
6735;SDS011;3405;50.576;12.364;2023-02-01T04:16:05;1.13;;;0.50;;
6735;SDS011;3405;50.576;12.364;2023-02-01T04:18:31;0.70;;;0.47;;
6735;SDS011;3405;50.576;12.364;2023-02-01T04:20:57;0.55;;;0.30;;
6735;SDS011;3405;50.576;12.364;2023-02-01T04:23:23;0.73;;;0.50;;
6735;SDS011;3405;50.576;12.364;2023-02-01T04:25:49;1.27;;;0.50;;
6735;SDS011;3405;50.576;12.364;2023-02-01T04:28:15;0.65;;;0.50;;
6735;SDS011;3405;50.576;12.364;2023-02-01T04:30:41;1.17;;;0.75;;
6735;SDS011;3405;50.576;12.364;2023-02-01T04:33:07;0.50;;;0.50;;
6735;SDS011;3405;50.576;12.364;2023-02-01T04:35:33;0.65;;;0.52;;
6735;SDS011;3405;50.576;12.364;2023-02-01T04:37:59;1.10;;;0.47;;
6735;SDS011;3405;50.576;12.364;2023-02-01T04:40:25;0.90;;;0.57;;
6735;SDS011;3405;50.576;12.364;2023-02-01T04:42:51;0.47;;;0.47;;
6735;SDS011;3405;50.576;12.364;2023-02-01T04:45:17;0.85;;;0.40;;
6735;SDS011;3405;50.576;12.364;2023-02-01T04:47:43;0.95;;;0.70;;
6735;SDS011;3405;50.576;12.364;2023-02-01T04:50:09;1.65;;;0.80;;
6735;SDS011;3405;50.576;12.364;2023-02-01T04:52:35;0.40;;;0.40;;
6735;SDS011;3405;50.576;12.364;2023-02-01T04:55:02;0.88;;;0.38;;
6735;SDS011;3405;50.576;12.364;2023-02-01T04:57:28;1.10;;;0.70;;
6735;SDS011;3405;50.576;12.364;2023-02-01T04:59:54;2.60;;;0.70;;
6735;SDS011;3405;50.576;12.364;2023-02-01T05:02:20;0.50;;;0.50;;
6735;SDS011;3405;50.576;12.364;2023-02-01T05:04:45;0.50;;;0.50;;
6735;SDS011;3405;50.576;12.364;2023-02-01T05:07:11;0.63;;;0.50;;
6735;SDS011;3405;50.576;12.364;2023-02-01T05:09:37;0.50;;;0.50;;
6735;SDS011;3405;50.576;12.364;2023-02-01T05:12:03;1.27;;;0.50;;
6735;SDS011;3405;50.576;12.364;2023-02-01T05:14:48;1.65;;;0.52;;
6735;SDS011;3405;50.576;12.364;2023-02-01T05:17:14;0.80;;;0.70;;
6735;SDS011;3405;50.576;12.364;2023-02-01T05:19:40;0.73;;;0.40;;
6735;SDS011;3405;50.576;12.364;2023-02-01T05:22:06;0.50;;;0.50;;
6735;SDS011;3405;50.576;12.364;2023-02-01T05:24:31;0.85;;;0.60;;
6735;SDS011;3405;50.576;12.364;2023-02-01T05:26:57;0.40;;;0.40;;
6735;SDS011;3405;50.576;12.364;2023-02-01T05:29:23;0.90;;;0.60;;
6735;SDS011;3405;50.576;12.364;2023-02-01T05:31:49;0.40;;;0.40;;
6735;SDS011;3405;50.576;12.364;2023-02-01T05:34:15;0.40;;;0.40;;
6735;SDS011;3405;50.576;12.364;2023-02-01T05:36:41;0.80;;;0.50;;
6735;SDS011;3405;50.576;12.364;2023-02-01T05:39:07;0.50;;;0.40;;
6735;SDS011;3405;50.576;12.364;2023-02-01T05:41:33;0.65;;;0.65;;
6735;SDS011;3405;50.576;12.364;2023-02-01T05:43:59;0.50;;;0.50;;
6735;SDS011;3405;50.576;12.364;2023-02-01T05:46:25;1.23;;;0.55;;
6735;SDS011;3405;50.576;12.364;2023-02-01T05:48:51;0.65;;;0.55;;
6735;SDS011;3405;50.576;12.364;2023-02-01T05:51:17;0.60;;;0.57;;
6735;SDS011;3405;50.576;12.364;2023-02-01T05:53:43;0.50;;;0.50;;
6735;SDS011;3405;50.576;12.364;2023-02-01T05:56:08;1.05;;;0.40;;
6735;SDS011;3405;50.576;12.364;2023-02-01T05:58:34;0.50;;;0.50;;
6735;SDS011;3405;50.576;12.364;2023-02-01T06:01:01;0.30;;;0.30;;
6735;SDS011;3405;50.576;12.364;2023-02-01T06:03:27;0.90;;;0.50;;
6735;SDS011;3405;50.576;12.364;2023-02-01T06:05:53;1.50;;;0.50;;
6735;SDS011;3405;50.576;12.364;2023-02-01T06:08:19;0.73;;;0.60;;
6735;SDS011;3405;50.576;12.364;2023-02-01T06:10:45;0.40;;;0.40;;
6735;SDS011;3405;50.576;12.364;2023-02-01T06:13:11;0.75;;;0.50;;
6735;SDS011;3405;50.576;12.364;2023-02-01T06:15:37;0.75;;;0.55;;
6735;SDS011;3405;50.576;12.364;2023-02-01T06:18:03;0.95;;;0.65;;
6735;SDS011;3405;50.576;12.364;2023-02-01T06:20:29;1.02;;;0.57;;
6735;SDS011;3405;50.576;12.364;2023-02-01T06:22:55;0.50;;;0.50;;
6735;SDS011;3405;50.576;12.364;2023-02-01T06:25:21;0.55;;;0.50;;
6735;SDS011;3405;50.576;12.364;2023-02-01T06:27:47;0.70;;;0.50;;
6735;SDS011;3405;50.576;12.364;2023-02-01T06:30:13;0.32;;;0.32;;
6735;SDS011;3405;50.576;12.364;2023-02-01T06:32:39;0.70;;;0.50;;
6735;SDS011;3405;50.576;12.364;2023-02-01T06:35:06;1.00;;;0.55;;
6735;SDS011;3405;50.576;12.364;2023-02-01T06:37:32;0.80;;;0.50;;
6735;SDS011;3405;50.576;12.364;2023-02-01T06:39:59;0.63;;;0.60;;
6735;SDS011;3405;50.576;12.364;2023-02-01T06:42:24;1.20;;;0.50;;
6735;SDS011;3405;50.576;12.364;2023-02-01T06:44:50;0.82;;;0.60;;
6735;SDS011;3405;50.576;12.364;2023-02-01T06:47:16;0.57;;;0.57;;
6735;SDS011;3405;50.576;12.364;2023-02-01T06:49:42;0.43;;;0.40;;
6735;SDS011;3405;50.576;12.364;2023-02-01T06:52:08;1.33;;;0.52;;
6735;SDS011;3405;50.576;12.364;2023-02-01T06:54:34;1.40;;;0.80;;
6735;SDS011;3405;50.576;12.364;2023-02-01T06:57:02;0.95;;;0.50;;
6735;SDS011;3405;50.576;12.364;2023-02-01T06:59:28;0.75;;;0.60;;
6735;SDS011;3405;50.576;12.364;2023-02-01T07:01:54;0.50;;;0.50;;
6735;SDS011;3405;50.576;12.364;2023-02-01T07:04:19;0.82;;;0.63;;
6735;SDS011;3405;50.576;12.364;2023-02-01T07:06:45;0.90;;;0.57;;
6735;SDS011;3405;50.576;12.364;2023-02-01T07:09:11;1.05;;;0.60;;
6735;SDS011;3405;50.576;12.364;2023-02-01T07:11:38;0.77;;;0.63;;
6735;SDS011;3405;50.576;12.364;2023-02-01T07:14:08;0.60;;;0.60;;
6735;SDS011;3405;50.576;12.364;2023-02-01T07:16:33;0.50;;;0.40;;
6735;SDS011;3405;50.576;12.364;2023-02-01T07:18:59;0.85;;;0.52;;
6735;SDS011;3405;50.576;12.364;2023-02-01T07:21:26;0.98;;;0.75;;
6735;SDS011;3405;50.576;12.364;2023-02-01T07:23:52;1.63;;;0.82;;
6735;SDS011;3405;50.576;12.364;2023-02-01T07:26:18;1.10;;;0.50;;
6735;SDS011;3405;50.576;12.364;2023-02-01T07:28:44;0.50;;;0.50;;
6735;SDS011;3405;50.576;12.364;2023-02-01T07:31:12;1.40;;;0.60;;
6735;SDS011;3405;50.576;12.364;2023-02-01T07:33:40;0.70;;;0.50;;
6735;SDS011;3405;50.576;12.364;2023-02-01T07:36:06;1.67;;;0.60;;
6735;SDS011;3405;50.576;12.364;2023-02-01T07:38:32;0.95;;;0.52;;
6735;SDS011;3405;50.576;12.364;2023-02-01T07:40:59;0.77;;;0.52;;
6735;SDS011;3405;50.576;12.364;2023-02-01T07:43:25;0.75;;;0.57;;
6735;SDS011;3405;50.576;12.364;2023-02-01T07:45:52;0.50;;;0.50;;
6735;SDS011;3405;50.576;12.364;2023-02-01T07:48:18;0.40;;;0.40;;
6735;SDS011;3405;50.576;12.364;2023-02-01T07:50:44;0.75;;;0.43;;
6735;SDS011;3405;50.576;12.364;2023-02-01T07:53:10;2.60;;;0.80;;
6735;SDS011;3405;50.576;12.364;2023-02-01T07:55:40;0.90;;;0.60;;
6735;SDS011;3405;50.576;12.364;2023-02-01T07:58:06;0.68;;;0.60;;
6735;SDS011;3405;50.576;12.364;2023-02-01T08:00:32;0.80;;;0.40;;
6735;SDS011;3405;50.576;12.364;2023-02-01T08:03:16;0.30;;;0.30;;
6735;SDS011;3405;50.576;12.364;2023-02-01T08:05:42;1.00;;;0.47;;
6735;SDS011;3405;50.576;12.364;2023-02-01T08:08:08;0.85;;;0.40;;
6735;SDS011;3405;50.576;12.364;2023-02-01T08:10:35;0.85;;;0.57;;
6735;SDS011;3405;50.576;12.364;2023-02-01T08:13:01;0.75;;;0.70;;
6735;SDS011;3405;50.576;12.364;2023-02-01T08:15:28;1.08;;;0.60;;
6735;SDS011;3405;50.576;12.364;2023-02-01T08:17:54;1.35;;;0.70;;
6735;SDS011;3405;50.576;12.364;2023-02-01T08:20:21;5.78;;;1.05;;
6735;SDS011;3405;50.576;12.364;2023-02-01T08:22:53;1.83;;;0.50;;
6735;SDS011;3405;50.576;12.364;2023-02-01T08:25:19;3.75;;;1.08;;
6735;SDS011;3405;50.576;12.364;2023-02-01T08:27:45;1.85;;;0.90;;
6735;SDS011;3405;50.576;12.364;2023-02-01T08:30:11;1.65;;;0.80;;
6735;SDS011;3405;50.576;12.364;2023-02-01T08:32:37;4.35;;;0.63;;
6735;SDS011;3405;50.576;12.364;2023-02-01T08:35:03;2.78;;;0.80;;
6735;SDS011;3405;50.576;12.364;2023-02-01T08:37:29;1.55;;;0.80;;
6735;SDS011;3405;50.576;12.364;2023-02-01T08:39:55;1.48;;;0.57;;
6735;SDS011;3405;50.576;12.364;2023-02-01T08:42:21;2.85;;;0.80;;
6735;SDS011;3405;50.576;12.364;2023-02-01T08:45:06;2.33;;;0.70;;
6735;SDS011;3405;50.576;12.364;2023-02-01T08:47:32;2.03;;;0.90;;
6735;SDS011;3405;50.576;12.364;2023-02-01T08:49:59;3.13;;;1.00;;
6735;SDS011;3405;50.576;12.364;2023-02-01T08:52:25;1.75;;;0.65;;
6735;SDS011;3405;50.576;12.364;2023-02-01T08:54:50;2.10;;;0.73;;
6735;SDS011;3405;50.576;12.364;2023-02-01T08:57:16;3.03;;;1.00;;
6735;SDS011;3405;50.576;12.364;2023-02-01T08:59:42;3.03;;;0.98;;
6735;SDS011;3405;50.576;12.364;2023-02-01T09:02:12;3.15;;;1.00;;
6735;SDS011;3405;50.576;12.364;2023-02-01T09:04:39;2.83;;;0.90;;
6735;SDS011;3405;50.576;12.364;2023-02-01T09:07:06;2.75;;;0.98;;
6735;SDS011;3405;50.576;12.364;2023-02-01T09:09:32;2.13;;;0.73;;
6735;SDS011;3405;50.576;12.364;2023-02-01T09:11:57;3.05;;;1.13;;
6735;SDS011;3405;50.576;12.364;2023-02-01T09:14:23;4.85;;;0.85;;
6735;SDS011;3405;50.576;12.364;2023-02-01T09:16:49;2.15;;;0.90;;
6735;SDS011;3405;50.576;12.364;2023-02-01T09:19:15;2.25;;;0.75;;
6735;SDS011;3405;50.576;12.364;2023-02-01T09:21:41;0.98;;;0.60;;
6735;SDS011;3405;50.576;12.364;2023-02-01T09:24:09;1.48;;;0.82;;
6735;SDS011;3405;50.576;12.364;2023-02-01T09:26:35;2.78;;;0.68;;
6735;SDS011;3405;50.576;12.364;2023-02-01T09:29:01;2.78;;;1.00;;
6735;SDS011;3405;50.576;12.364;2023-02-01T09:31:28;1.48;;;0.80;;
6735;SDS011;3405;50.576;12.364;2023-02-01T09:33:54;2.67;;;0.70;;
6735;SDS011;3405;50.576;12.364;2023-02-01T09:36:20;2.30;;;0.77;;
6735;SDS011;3405;50.576;12.364;2023-02-01T09:38:46;1.38;;;0.73;;
6735;SDS011;3405;50.576;12.364;2023-02-01T09:41:24;1.83;;;0.77;;
6735;SDS011;3405;50.576;12.364;2023-02-01T09:46:27;1.67;;;0.80;;
6735;SDS011;3405;50.576;12.364;2023-02-01T09:48:54;1.48;;;0.70;;
6735;SDS011;3405;50.576;12.364;2023-02-01T09:51:32;0.95;;;0.57;;
6735;SDS011;3405;50.576;12.364;2023-02-01T09:54:07;1.80;;;0.80;;
6735;SDS011;3405;50.576;12.364;2023-02-01T09:56:40;1.90;;;0.88;;
6735;SDS011;3405;50.576;12.364;2023-02-01T09:59:15;1.35;;;0.70;;
6735;SDS011;3405;50.576;12.364;2023-02-01T10:01:46;1.88;;;0.70;;
6735;SDS011;3405;50.576;12.364;2023-02-01T10:04:12;1.42;;;0.82;;
6735;SDS011;3405;50.576;12.364;2023-02-01T10:06:51;2.88;;;0.80;;
6735;SDS011;3405;50.576;12.364;2023-02-01T10:20:03;1.88;;;0.50;;
6735;SDS011;3405;50.576;12.364;2023-02-01T10:25:14;2.70;;;0.82;;
6735;SDS011;3405;50.576;12.364;2023-02-01T10:27:42;1.13;;;0.70;;
6735;SDS011;3405;50.576;12.364;2023-02-01T10:30:21;3.45;;;0.80;;
6735;SDS011;3405;50.576;12.364;2023-02-01T10:32:48;1.77;;;0.70;;
6735;SDS011;3405;50.576;12.364;2023-02-01T10:35:17;1.20;;;0.60;;
6735;SDS011;3405;50.576;12.364;2023-02-01T10:37:43;1.10;;;0.68;;
6735;SDS011;3405;50.576;12.364;2023-02-01T10:40:13;0.55;;;0.47;;
6735;SDS011;3405;50.576;12.364;2023-02-01T10:42:41;1.17;;;0.60;;
6735;SDS011;3405;50.576;12.364;2023-02-01T10:45:11;1.35;;;0.60;;
6735;SDS011;3405;50.576;12.364;2023-02-01T10:47:38;2.08;;;0.68;;
6735;SDS011;3405;50.576;12.364;2023-02-01T10:50:10;2.03;;;0.80;;
6735;SDS011;3405;50.576;12.364;2023-02-01T10:52:54;1.55;;;0.68;;
6735;SDS011;3405;50.576;12.364;2023-02-01T10:55:32;1.05;;;0.60;;
6735;SDS011;3405;50.576;12.364;2023-02-01T10:58:03;1.45;;;0.80;;
6735;SDS011;3405;50.576;12.364;2023-02-01T11:00:38;3.83;;;1.10;;
6735;SDS011;3405;50.576;12.364;2023-02-01T11:03:53;3.30;;;0.98;;
6735;SDS011;3405;50.576;12.364;2023-02-01T11:05:53;7.10;;;1.02;;
6735;SDS011;3405;50.576;12.364;2023-02-01T11:08:20;4.03;;;0.98;;
6735;SDS011;3405;50.576;12.364;2023-02-01T11:10:46;2.65;;;1.00;;
6735;SDS011;3405;50.576;12.364;2023-02-01T11:13:13;2.22;;;1.20;;
6735;SDS011;3405;50.576;12.364;2023-02-01T11:15:42;2.45;;;0.88;;
6735;SDS011;3405;50.576;12.364;2023-02-01T11:18:19;3.90;;;1.10;;
6735;SDS011;3405;50.576;12.364;2023-02-01T11:20:46;4.32;;;1.00;;
6735;SDS011;3405;50.576;12.364;2023-02-01T11:23:17;1.25;;;0.77;;
6735;SDS011;3405;50.576;12.364;2023-02-01T11:26:26;2.95;;;1.15;;
6735;SDS011;3405;50.576;12.364;2023-02-01T11:28:33;2.33;;;0.80;;
6735;SDS011;3405;50.576;12.364;2023-02-01T11:31:02;3.08;;;1.08;;
6735;SDS011;3405;50.576;12.364;2023-02-01T11:33:29;2.95;;;1.13;;
6735;SDS011;3405;50.576;12.364;2023-02-01T11:35:58;4.70;;;1.10;;
6735;SDS011;3405;50.576;12.364;2023-02-01T11:38:29;2.58;;;1.10;;
6735;SDS011;3405;50.576;12.364;2023-02-01T11:40:55;2.08;;;1.08;;
6735;SDS011;3405;50.576;12.364;2023-02-01T11:43:36;6.07;;;1.10;;
6735;SDS011;3405;50.576;12.364;2023-02-01T11:46:02;3.33;;;1.10;;
6735;SDS011;3405;50.576;12.364;2023-02-01T11:48:30;2.75;;;1.05;;
6735;SDS011;3405;50.576;12.364;2023-02-01T11:51:07;2.30;;;1.15;;
6735;SDS011;3405;50.576;12.364;2023-02-01T11:56:02;2.75;;;0.95;;
6735;SDS011;3405;50.576;12.364;2023-02-01T11:58:36;3.78;;;1.05;;
6735;SDS011;3405;50.576;12.364;2023-02-01T12:06:20;3.78;;;1.10;;
6735;SDS011;3405;50.576;12.364;2023-02-01T12:08:55;1.60;;;0.98;;
6735;SDS011;3405;50.576;12.364;2023-02-01T12:14:14;3.38;;;1.10;;
6735;SDS011;3405;50.576;12.364;2023-02-01T12:19:36;4.38;;;1.15;;
6735;SDS011;3405;50.576;12.364;2023-02-01T12:22:10;4.43;;;1.23;;
6735;SDS011;3405;50.576;12.364;2023-02-01T12:24:47;4.40;;;1.50;;
6735;SDS011;3405;50.576;12.364;2023-02-01T12:30:01;2.60;;;1.00;;
6735;SDS011;3405;50.576;12.364;2023-02-01T12:32:39;2.75;;;1.00;;
6735;SDS011;3405;50.576;12.364;2023-02-01T12:38:16;2.42;;;0.85;;
6735;SDS011;3405;50.576;12.364;2023-02-01T12:43:18;3.42;;;0.98;;
6735;SDS011;3405;50.576;12.364;2023-02-01T12:45:54;3.35;;;1.20;;
6735;SDS011;3405;50.576;12.364;2023-02-01T12:50:57;6.57;;;1.10;;
6735;SDS011;3405;50.576;12.364;2023-02-01T12:56:09;6.35;;;1.50;;
6735;SDS011;3405;50.576;12.364;2023-02-01T12:58:40;5.35;;;1.40;;
6735;SDS011;3405;50.576;12.364;2023-02-01T13:01:11;2.10;;;1.00;;
6735;SDS011;3405;50.576;12.364;2023-02-01T13:03:52;6.22;;;1.38;;
6735;SDS011;3405;50.576;12.364;2023-02-01T13:06:20;4.80;;;1.08;;
6735;SDS011;3405;50.576;12.364;2023-02-01T13:08:52;4.80;;;1.23;;
6735;SDS011;3405;50.576;12.364;2023-02-01T13:11:38;4.75;;;1.65;;
6735;SDS011;3405;50.576;12.364;2023-02-01T13:14:07;6.57;;;1.20;;
6735;SDS011;3405;50.576;12.364;2023-02-01T13:16:38;4.80;;;1.20;;
6735;SDS011;3405;50.576;12.364;2023-02-01T13:21:48;4.15;;;1.20;;
6735;SDS011;3405;50.576;12.364;2023-02-01T13:24:27;2.83;;;1.13;;
6735;SDS011;3405;50.576;12.364;2023-02-01T13:26:54;6.07;;;1.02;;
6735;SDS011;3405;50.576;12.364;2023-02-01T13:29:21;4.80;;;1.40;;
6735;SDS011;3405;50.576;12.364;2023-02-01T13:34:37;2.05;;;1.00;;
6735;SDS011;3405;50.576;12.364;2023-02-01T13:40:04;2.60;;;1.10;;
6735;SDS011;3405;50.576;12.364;2023-02-01T13:42:42;3.95;;;1.00;;
6735;SDS011;3405;50.576;12.364;2023-02-01T13:45:16;1.90;;;1.13;;
6735;SDS011;3405;50.576;12.364;2023-02-01T13:47:43;2.88;;;1.30;;
6735;SDS011;3405;50.576;12.364;2023-02-01T13:50:19;5.13;;;1.15;;
6735;SDS011;3405;50.576;12.364;2023-02-01T13:52:51;3.80;;;1.08;;
6735;SDS011;3405;50.576;12.364;2023-02-01T13:57:50;5.65;;;1.35;;
6735;SDS011;3405;50.576;12.364;2023-02-01T14:00:30;4.57;;;1.15;;
6735;SDS011;3405;50.576;12.364;2023-02-01T14:23:47;3.15;;;1.50;;
6735;SDS011;3405;50.576;12.364;2023-02-01T14:26:19;1.52;;;1.00;;
6735;SDS011;3405;50.576;12.364;2023-02-01T14:28:49;2.55;;;1.10;;
6735;SDS011;3405;50.576;12.364;2023-02-01T14:31:29;5.15;;;1.38;;
6735;SDS011;3405;50.576;12.364;2023-02-01T14:33:57;4.65;;;1.35;;
6735;SDS011;3405;50.576;12.364;2023-02-01T14:36:24;3.65;;;1.00;;
6735;SDS011;3405;50.576;12.364;2023-02-01T14:38:50;4.55;;;1.58;;
6735;SDS011;3405;50.576;12.364;2023-02-01T14:41:28;2.85;;;0.95;;
6735;SDS011;3405;50.576;12.364;2023-02-01T14:49:09;2.13;;;0.95;;
6735;SDS011;3405;50.576;12.364;2023-02-01T14:51:35;3.45;;;0.80;;
6735;SDS011;3405;50.576;12.364;2023-02-01T14:54:01;2.92;;;1.25;;
6735;SDS011;3405;50.576;12.364;2023-02-01T14:56:27;3.22;;;1.15;;
6735;SDS011;3405;50.576;12.364;2023-02-01T15:01:24;4.10;;;1.30;;
6735;SDS011;3405;50.576;12.364;2023-02-01T15:06:24;2.72;;;1.20;;
6735;SDS011;3405;50.576;12.364;2023-02-01T15:09:10;1.65;;;0.93;;
6735;SDS011;3405;50.576;12.364;2023-02-01T15:14:22;2.58;;;0.90;;
6735;SDS011;3405;50.576;12.364;2023-02-01T15:16:48;2.00;;;0.90;;
6735;SDS011;3405;50.576;12.364;2023-02-01T15:19:21;1.90;;;0.90;;
6735;SDS011;3405;50.576;12.364;2023-02-01T15:21:48;2.85;;;1.10;;
6735;SDS011;3405;50.576;12.364;2023-02-01T15:24:19;2.33;;;1.00;;
6735;SDS011;3405;50.576;12.364;2023-02-01T15:26:45;2.13;;;0.90;;
6735;SDS011;3405;50.576;12.364;2023-02-01T15:29:12;3.90;;;0.95;;
6735;SDS011;3405;50.576;12.364;2023-02-01T15:31:39;1.65;;;1.08;;
6735;SDS011;3405;50.576;12.364;2023-02-01T15:34:05;1.30;;;0.80;;
6735;SDS011;3405;50.576;12.364;2023-02-01T15:36:31;2.35;;;1.02;;
6735;SDS011;3405;50.576;12.364;2023-02-01T15:42:08;1.17;;;0.88;;
6735;SDS011;3405;50.576;12.364;2023-02-01T15:44:40;3.53;;;1.05;;
6735;SDS011;3405;50.576;12.364;2023-02-01T15:47:08;1.02;;;0.70;;
6735;SDS011;3405;50.576;12.364;2023-02-01T15:49:39;1.70;;;1.05;;
6735;SDS011;3405;50.576;12.364;2023-02-01T15:52:11;4.00;;;1.00;;
6735;SDS011;3405;50.576;12.364;2023-02-01T15:54:45;1.17;;;0.77;;
6735;SDS011;3405;50.576;12.364;2023-02-01T15:57:14;1.77;;;0.70;;
6735;SDS011;3405;50.576;12.364;2023-02-01T15:59:44;2.47;;;1.00;;
6735;SDS011;3405;50.576;12.364;2023-02-01T16:02:28;1.63;;;0.90;;
6735;SDS011;3405;50.576;12.364;2023-02-01T16:04:54;1.27;;;0.70;;
6735;SDS011;3405;50.576;12.364;2023-02-01T16:07:24;2.38;;;1.00;;
6735;SDS011;3405;50.576;12.364;2023-02-01T16:09:54;1.60;;;0.90;;
6735;SDS011;3405;50.576;12.364;2023-02-01T16:12:26;1.50;;;1.00;;
6735;SDS011;3405;50.576;12.364;2023-02-01T16:14:54;1.52;;;0.80;;
6735;SDS011;3405;50.576;12.364;2023-02-01T16:17:20;2.72;;;1.33;;
6735;SDS011;3405;50.576;12.364;2023-02-01T16:19:46;5.15;;;1.25;;
6735;SDS011;3405;50.576;12.364;2023-02-01T16:22:12;3.10;;;1.10;;
6735;SDS011;3405;50.576;12.364;2023-02-01T16:24:38;4.80;;;1.08;;
6735;SDS011;3405;50.576;12.364;2023-02-01T16:27:04;4.80;;;1.23;;
6735;SDS011;3405;50.576;12.364;2023-02-01T16:29:32;2.90;;;1.27;;
6735;SDS011;3405;50.576;12.364;2023-02-01T16:31:58;5.20;;;1.40;;
6735;SDS011;3405;50.576;12.364;2023-02-01T16:34:24;2.85;;;1.00;;
6735;SDS011;3405;50.576;12.364;2023-02-01T16:36:50;5.10;;;1.65;;
6735;SDS011;3405;50.576;12.364;2023-02-01T16:39:17;5.22;;;1.40;;
6735;SDS011;3405;50.576;12.364;2023-02-01T16:41:43;2.95;;;1.15;;
6735;SDS011;3405;50.576;12.364;2023-02-01T16:44:10;3.50;;;1.38;;
6735;SDS011;3405;50.576;12.364;2023-02-01T16:46:38;2.40;;;1.13;;
6735;SDS011;3405;50.576;12.364;2023-02-01T16:49:05;5.90;;;1.35;;
6735;SDS011;3405;50.576;12.364;2023-02-01T16:51:31;3.20;;;1.08;;
6735;SDS011;3405;50.576;12.364;2023-02-01T16:54:00;2.97;;;1.00;;
6735;SDS011;3405;50.576;12.364;2023-02-01T16:56:30;4.40;;;1.23;;
6735;SDS011;3405;50.576;12.364;2023-02-01T16:58:57;6.07;;;1.20;;
6735;SDS011;3405;50.576;12.364;2023-02-01T17:01:23;3.45;;;1.20;;
6735;SDS011;3405;50.576;12.364;2023-02-01T17:03:49;5.22;;;1.30;;
6735;SDS011;3405;50.576;12.364;2023-02-01T17:06:19;8.73;;;1.35;;
6735;SDS011;3405;50.576;12.364;2023-02-01T17:08:47;5.35;;;1.30;;
6735;SDS011;3405;50.576;12.364;2023-02-01T17:11:15;5.68;;;1.10;;
6735;SDS011;3405;50.576;12.364;2023-02-01T17:13:41;4.65;;;1.00;;